Time;durP1;ratioP1;P1;durP2;ratioP2;P2;SDS_P1;SDS_P2;PMS_P1;PMS_P2;Temp;Humidity;BMP_temperature;BMP_pressure;BME280_temperature;BME280_humidity;BME280_pressure;Samples;Min_cycle;Max_cycle;Signal;HPM_P1;HPM_P2
2023/05/15 00:01:44;;;;;;;6.28;1.70;;;8.60;99.90;;;;;;5050138;28;20655;-72
2023/05/15 00:04:10;;;;;;;5.70;1.90;;;8.50;99.90;;;;;;5050537;28;20488;-72
2023/05/15 00:06:36;;;;;;;10.38;2.22;;;8.40;99.90;;;;;;5049960;28;20037;-73
2023/05/15 00:09:02;;;;;;;7.00;1.90;;;8.50;99.90;;;;;;5032627;28;20061;-72
2023/05/15 00:11:28;;;;;;;8.70;2.10;;;8.60;99.90;;;;;;5050804;28;20496;-73
2023/05/15 00:13:54;;;;;;;4.90;1.70;;;8.50;99.90;;;;;;5050400;28;20124;-72
2023/05/15 00:16:20;;;;;;;5.63;1.90;;;8.40;99.90;;;;;;5050527;28;20188;-72
2023/05/15 00:18:45;;;;;;;8.45;1.83;;;8.40;99.90;;;;;;5049824;28;20100;-72
2023/05/15 00:21:11;;;;;;;9.30;2.22;;;8.40;99.90;;;;;;5050351;28;20029;-72
2023/05/15 00:23:37;;;;;;;7.75;2.00;;;8.40;99.90;;;;;;5049593;28;20024;-73
2023/05/15 00:26:02;;;;;;;7.22;2.03;;;8.30;99.90;;;;;;5050345;28;20462;-73
2023/05/15 00:28:28;;;;;;;7.60;2.15;;;8.30;99.90;;;;;;5049755;28;20029;-75
2023/05/15 00:30:54;;;;;;;9.10;1.92;;;8.20;99.90;;;;;;5050440;28;20048;-72
2023/05/15 00:33:20;;;;;;;7.55;1.98;;;8.20;99.90;;;;;;5050201;28;20029;-73
2023/05/15 00:35:45;;;;;;;7.72;2.38;;;8.20;99.90;;;;;;5049559;28;20366;-73
2023/05/15 00:38:11;;;;;;;9.65;2.20;;;8.10;99.90;;;;;;5050190;28;20068;-73
2023/05/15 00:40:38;;;;;;;7.30;2.45;;;8.10;99.90;;;;;;5049858;28;20097;-73
2023/05/15 00:43:04;;;;;;;8.30;2.17;;;8.10;99.90;;;;;;5050185;28;20513;-73
2023/05/15 00:45:31;;;;;;;10.18;2.70;;;8.10;99.90;;;;;;5052837;28;20052;-74
2023/05/15 00:48:00;;;;;;;12.65;2.03;;;8.00;99.90;;;;;;5053880;28;20048;-73
2023/05/15 00:50:26;;;;;;;6.63;1.92;;;8.00;99.90;;;;;;5054161;28;20048;-73
2023/05/15 00:52:54;;;;;;;10.90;2.40;;;8.00;99.90;;;;;;5053210;28;20048;-72
2023/05/15 00:55:20;;;;;;;5.57;1.95;;;7.90;99.90;;;;;;5053715;28;20036;-72
2023/05/15 00:57:47;;;;;;;9.27;2.13;;;7.90;99.90;;;;;;5053337;28;20035;-72
2023/05/15 01:00:15;;;;;;;6.50;1.92;;;7.80;99.90;;;;;;5053653;28;20055;-72
2023/05/15 01:02:41;;;;;;;4.90;1.83;;;7.80;99.90;;;;;;5053316;28;20444;-72
2023/05/15 01:05:07;;;;;;;7.32;2.10;;;7.80;99.90;;;;;;5053580;28;20081;-72
2023/05/15 01:07:50;;;;;;;7.20;2.53;;;7.80;99.90;;;;;;5053029;28;20056;-73
2023/05/15 01:10:18;;;;;;;5.35;1.90;;;7.70;99.90;;;;;;5053915;28;20051;-72
2023/05/15 01:12:46;;;;;;;7.63;1.90;;;7.70;99.90;;;;;;5053356;28;20025;-72
2023/05/15 01:15:12;;;;;;;8.82;2.22;;;7.60;99.90;;;;;;5053834;28;20434;-73
2023/05/15 01:17:37;;;;;;;8.27;2.40;;;7.60;99.90;;;;;;5052937;28;20025;-72
2023/05/15 01:20:08;;;;;;;8.60;2.00;;;7.60;99.90;;;;;;5053721;28;20029;-74
2023/05/15 01:22:54;;;;;;;9.60;2.00;;;7.60;99.90;;;;;;5053234;28;20029;-72
2023/05/15 01:25:47;;;;;;;6.32;1.60;;;7.60;99.90;;;;;;5053111;28;20106;-73
2023/05/15 01:28:14;;;;;;;;;;;7.50;99.90;;;;;;5053458;28;20029;-72
2023/05/15 01:30:43;;;;;;;9.10;2.67;;;7.50;99.90;;;;;;5052937;28;19978;-73
2023/05/15 01:33:15;;;;;;;8.20;1.88;;;7.40;99.90;;;;;;5053102;28;20327;-72
2023/05/15 01:36:04;;;;;;;9.15;2.35;;;7.40;99.90;;;;;;5052611;28;20036;-72
2023/05/15 01:38:48;;;;;;;6.53;2.28;;;7.30;99.90;;;;;;5052968;28;20040;-73
2023/05/15 01:41:51;;;;;;;6.43;2.17;;;7.40;99.90;;;;;;5052946;28;20453;-74
2023/05/15 01:44:41;;;;;;;5.13;2.17;;;7.30;99.90;;;;;;4952397;29;20035;-73
2023/05/15 01:47:12;;;;;;;8.55;2.25;;;7.40;99.90;;;;;;5048374;28;20040;-73
2023/05/15 01:49:40;;;;;;;8.05;1.85;;;7.30;99.90;;;;;;5052226;28;20367;-73
2023/05/15 01:52:26;;;;;;;9.65;2.47;;;7.40;99.90;;;;;;5052905;28;20021;-73
2023/05/15 01:54:53;;;;;;;7.68;2.20;;;7.40;99.90;;;;;;5052578;28;20028;-73
2023/05/15 01:57:20;;;;;;;6.50;2.20;;;7.30;99.90;;;;;;5052281;28;20025;-73
2023/05/15 01:59:47;;;;;;;7.22;2.55;;;7.30;99.90;;;;;;5051799;28;20124;-73
2023/05/15 02:02:14;;;;;;;8.50;2.22;;;7.30;99.90;;;;;;5052351;28;20502;-73
2023/05/15 02:04:41;;;;;;;4.43;2.15;;;7.30;99.90;;;;;;5051895;28;20072;-73
2023/05/15 02:07:08;;;;;;;6.32;2.00;;;7.30;99.90;;;;;;5052215;28;20135;-73
2023/05/15 02:09:34;;;;;;;7.75;2.97;;;7.30;99.90;;;;;;5052243;28;20460;-75
2023/05/15 02:12:01;;;;;;;6.68;2.38;;;7.20;99.90;;;;;;5052285;28;20465;-73
2023/05/15 02:14:31;;;;;;;8.95;2.65;;;7.20;99.90;;;;;;5052458;28;20075;-73
2023/05/15 02:16:56;;;;;;;6.93;2.15;;;7.20;99.90;;;;;;5051804;28;20414;-73
2023/05/15 02:19:23;;;;;;;6.75;2.00;;;7.20;99.90;;;;;;5052208;28;20029;-73
2023/05/15 02:21:48;;;;;;;6.45;2.10;;;7.20;99.90;;;;;;5051742;28;20021;-73
2023/05/15 02:24:14;;;;;;;8.73;2.60;;;7.10;99.90;;;;;;5033616;28;20036;-75
2023/05/15 02:26:50;;;;;;;13.23;2.58;;;7.10;99.90;;;;;;5033381;28;20029;-73
2023/05/15 02:29:27;;;;;;;10.75;2.70;;;7.10;99.90;;;;;;5051963;28;20033;-73
2023/05/15 02:32:24;;;;;;;8.95;2.28;;;7.10;99.90;;;;;;5051483;28;20411;-73
2023/05/15 02:35:08;;;;;;;9.98;2.40;;;7.10;99.90;;;;;;5051442;28;20025;-73
2023/05/15 02:37:37;;;;;;;5.80;2.05;;;7.10;99.90;;;;;;5051571;28;20029;-73
2023/05/15 02:40:05;;;;;;;8.38;2.47;;;7.20;99.90;;;;;;5051152;28;20029;-73
2023/05/15 02:42:33;;;;;;;5.63;2.08;;;7.10;99.90;;;;;;5051632;28;20067;-73
2023/05/15 02:45:00;;;;;;;7.38;2.30;;;7.00;99.90;;;;;;5050827;28;20044;-73
2023/05/15 02:47:27;;;;;;;7.57;1.92;;;7.00;99.90;;;;;;5051113;28;20120;-73
2023/05/15 02:49:54;;;;;;;8.40;2.20;;;7.00;99.90;;;;;;5051083;28;20032;-73
2023/05/15 02:52:21;;;;;;;9.35;2.42;;;7.10;99.90;;;;;;5051365;28;20386;-73
2023/05/15 02:54:47;;;;;;;6.38;2.05;;;7.00;99.90;;;;;;5051108;28;20035;-73
2023/05/15 02:57:12;;;;;;;10.32;2.42;;;7.00;99.90;;;;;;5051253;28;20028;-73
2023/05/15 02:59:38;;;;;;;13.75;2.33;;;6.80;99.90;;;;;;5050389;28;20467;-74
2023/05/15 03:02:04;;;;;;;7.30;2.30;;;6.90;99.90;;;;;;5051426;28;20029;-73
2023/05/15 03:04:30;;;;;;;7.68;2.20;;;6.80;99.90;;;;;;5051220;28;20418;-73
2023/05/15 03:06:56;;;;;;;10.63;2.33;;;6.80;99.90;;;;;;5050638;28;20029;-73
2023/05/15 03:09:21;;;;;;;6.45;2.22;;;6.70;99.90;;;;;;5051039;28;20509;-73
2023/05/15 03:11:47;;;;;;;6.25;2.72;;;6.70;99.90;;;;;;5050948;28;20033;-74
2023/05/15 03:14:13;;;;;;;10.90;2.30;;;6.60;99.90;;;;;;5051302;28;20102;-73
2023/05/15 03:16:39;;;;;;;4.35;2.15;;;6.60;99.90;;;;;;5050553;28;20035;-74
2023/05/15 03:19:05;;;;;;;11.40;2.17;;;6.60;99.90;;;;;;5051709;28;20021;-73
2023/05/15 03:21:30;;;;;;;7.50;2.58;;;6.60;99.90;;;;;;5051137;28;20029;-73
2023/05/15 03:23:56;;;;;;;7.72;2.20;;;6.50;99.90;;;;;;5050386;28;20028;-73
2023/05/15 03:26:22;;;;;;;8.90;2.30;;;6.60;99.90;;;;;;5050675;28;20029;-73
2023/05/15 03:28:48;;;;;;;10.02;3.00;;;6.60;99.90;;;;;;5050316;28;20032;-73
2023/05/15 03:31:13;;;;;;;10.18;2.60;;;6.60;99.90;;;;;;5050770;28;20049;-73
2023/05/15 03:33:39;;;;;;;7.97;2.20;;;6.50;99.90;;;;;;5050749;28;20029;-75
2023/05/15 03:36:06;;;;;;;8.15;2.17;;;6.50;99.90;;;;;;5050690;28;20025;-73
2023/05/15 03:38:32;;;;;;;7.90;2.05;;;6.50;99.90;;;;;;5050794;28;20041;-73
2023/05/15 03:40:57;;;;;;;6.18;2.28;;;6.40;99.90;;;;;;5050143;28;20121;-73
2023/05/15 03:43:23;;;;;;;7.15;2.25;;;6.30;99.90;;;;;;5051049;28;20032;-73
2023/05/15 03:45:49;;;;;;;9.95;2.80;;;6.30;99.90;;;;;;5050314;28;20044;-73
2023/05/15 03:48:15;;;;;;;8.20;2.28;;;6.30;99.90;;;;;;5050598;28;20032;-73
2023/05/15 03:50:41;;;;;;;6.32;2.08;;;6.30;99.90;;;;;;5050016;28;20051;-75
2023/05/15 03:53:07;;;;;;;6.70;2.22;;;6.30;99.90;;;;;;5050956;28;20154;-73
2023/05/15 03:55:33;;;;;;;9.00;2.55;;;6.30;99.90;;;;;;5050300;28;20473;-74
2023/05/15 03:57:58;;;;;;;5.68;1.80;;;6.40;99.90;;;;;;5050095;28;20025;-73
2023/05/15 04:00:24;;;;;;;10.43;2.55;;;6.30;99.90;;;;;;5050313;28;20127;-73
2023/05/15 04:02:50;;;;;;;6.90;2.17;;;6.30;99.90;;;;;;5032040;28;20032;-73
2023/05/15 04:05:18;;;;;;;12.93;2.80;;;6.30;99.90;;;;;;5050386;28;20434;-73
2023/05/15 04:07:44;;;;;;;6.50;2.50;;;6.30;99.90;;;;;;5050338;28;20044;-73
2023/05/15 04:10:10;;;;;;;11.65;2.30;;;6.30;99.90;;;;;;5050530;28;20029;-73
2023/05/15 04:12:36;;;;;;;4.93;1.67;;;6.30;99.90;;;;;;5050768;28;20089;-73
2023/05/15 04:15:16;;;;;;;7.80;2.40;;;6.20;99.90;;;;;;5050116;28;20036;-73
2023/05/15 04:17:44;;;;;;;8.38;2.47;;;6.30;99.90;;;;;;5049825;28;20354;-75
2023/05/15 04:20:11;;;;;;;8.40;2.20;;;6.30;99.90;;;;;;5053259;28;20509;-73
2023/05/15 04:22:37;;;;;;;10.45;3.40;;;6.20;99.90;;;;;;5054024;28;20029;-73
2023/05/15 04:25:03;;;;;;;6.57;2.13;;;6.20;99.90;;;;;;5035983;28;20032;-73
2023/05/15 04:27:29;;;;;;;4.90;1.75;;;6.30;99.90;;;;;;5054252;28;20115;-73
2023/05/15 04:29:55;;;;;;;8.88;1.80;;;6.20;99.90;;;;;;5053588;28;20350;-73
2023/05/15 04:32:21;;;;;;;8.48;2.22;;;6.20;99.90;;;;;;5053936;28;20033;-73
2023/05/15 04:34:46;;;;;;;8.95;2.50;;;6.20;99.90;;;;;;5053623;28;20033;-73
2023/05/15 04:37:12;;;;;;;6.60;2.30;;;6.20;99.90;;;;;;5054244;28;20099;-73
2023/05/15 04:39:38;;;;;;;8.65;2.35;;;6.30;99.90;;;;;;5054182;28;20059;-72
2023/05/15 04:42:04;;;;;;;7.47;2.13;;;6.30;99.90;;;;;;5053309;28;20092;-73
2023/05/15 04:44:29;;;;;;;6.32;2.25;;;6.30;99.90;;;;;;5054253;28;20033;-72
2023/05/15 04:46:55;;;;;;;6.50;2.20;;;6.40;99.90;;;;;;5054070;28;20029;-73
2023/05/15 04:49:21;;;;;;;7.15;1.95;;;6.40;99.90;;;;;;5054104;28;20453;-73
2023/05/15 04:51:46;;;;;;;5.88;2.15;;;6.50;99.90;;;;;;5053427;28;20060;-73
2023/05/15 04:54:12;;;;;;;4.63;1.60;;;6.50;99.90;;;;;;5053666;28;20025;-73
2023/05/15 04:56:38;;;;;;;7.80;2.15;;;6.50;99.90;;;;;;5053514;28;20025;-73
2023/05/15 04:59:04;;;;;;;7.57;2.35;;;6.50;99.90;;;;;;5053302;28;20597;-73
2023/05/15 05:01:29;;;;;;;8.50;2.00;;;6.50;99.90;;;;;;5053384;28;20082;-78
2023/05/15 05:03:55;;;;;;;7.75;2.03;;;6.50;99.90;;;;;;5053028;28;20065;-73
2023/05/15 05:06:22;;;;;;;7.95;2.35;;;6.50;99.90;;;;;;5053371;28;20028;-73
2023/05/15 05:08:48;;;;;;;10.18;2.38;;;6.60;99.90;;;;;;5052885;28;20029;-73
2023/05/15 05:11:13;;;;;;;11.80;2.50;;;6.70;99.90;;;;;;5053196;28;20486;-72
2023/05/15 05:13:39;;;;;;;8.57;2.53;;;6.80;99.90;;;;;;5035482;28;20033;-72
2023/05/15 05:16:05;;;;;;;8.05;2.13;;;6.90;99.90;;;;;;5053036;28;20039;-73
2023/05/15 05:18:31;;;;;;;5.30;1.95;;;7.00;99.90;;;;;;5035556;28;20113;-72
2023/05/15 05:21:01;;;;;;;8.40;2.58;;;7.20;99.90;;;;;;5052870;28;20200;-72
2023/05/15 05:23:27;;;;;;;9.88;2.33;;;7.30;99.90;;;;;;5053311;28;20039;-72
2023/05/15 05:25:53;;;;;;;8.55;2.15;;;7.40;99.90;;;;;;5052904;28;20529;-73
2023/05/15 05:28:18;;;;;;;6.55;1.98;;;7.50;99.90;;;;;;5052651;28;20064;-72
2023/05/15 05:30:45;;;;;;;7.32;2.00;;;7.70;99.90;;;;;;5051771;28;20073;-72
2023/05/15 05:33:11;;;;;;;8.73;2.08;;;7.80;99.90;;;;;;5052242;28;20128;-72
2023/05/15 05:35:36;;;;;;;6.40;2.33;;;7.90;99.90;;;;;;5052327;28;20037;-72
2023/05/15 05:38:02;;;;;;;5.93;1.70;;;8.00;99.90;;;;;;5052468;28;20485;-72
2023/05/15 05:40:28;;;;;;;5.45;1.73;;;8.20;99.90;;;;;;5052865;28;20070;-72
2023/05/15 05:42:54;;;;;;;7.68;1.80;;;8.30;99.90;;;;;;5051815;28;20029;-72
2023/05/15 05:45:20;;;;;;;7.72;2.25;;;8.30;99.90;;;;;;5052684;28;20120;-72
2023/05/15 05:47:45;;;;;;;7.63;2.47;;;8.40;99.90;;;;;;5052198;28;20052;-72
2023/05/15 05:50:11;;;;;;;9.07;2.42;;;8.50;99.90;;;;;;5052171;28;20359;-72
2023/05/15 05:52:37;;;;;;;5.18;2.17;;;8.60;99.90;;;;;;5034240;28;20036;-72
2023/05/15 05:55:03;;;;;;;5.72;1.67;;;8.80;99.90;;;;;;5051460;28;20036;-72
2023/05/15 05:57:29;;;;;;;8.10;2.00;;;8.80;99.90;;;;;;5052470;28;20052;-73
2023/05/15 05:59:55;;;;;;;4.13;1.70;;;8.90;99.90;;;;;;5051643;28;20056;-74
2023/05/15 06:02:21;;;;;;;6.93;1.98;;;9.00;99.90;;;;;;5034271;28;20102;-74
2023/05/15 06:04:47;;;;;;;9.75;2.10;;;9.10;99.90;;;;;;5052221;28;20033;-75
2023/05/15 06:07:13;;;;;;;6.97;2.15;;;9.20;99.90;;;;;;5051828;28;20108;-73
2023/05/15 06:09:39;;;;;;;5.25;2.35;;;9.30;99.90;;;;;;5052480;28;20033;-73
2023/05/15 06:12:06;;;;;;;6.90;2.53;;;9.40;99.90;;;;;;5051926;28;20060;-73
2023/05/15 06:14:32;;;;;;;7.30;1.95;;;9.60;99.90;;;;;;5052054;28;20021;-73
2023/05/15 06:16:59;;;;;;;6.90;1.92;;;9.70;99.90;;;;;;5051746;28;20055;-73
2023/05/15 06:19:24;;;;;;;9.15;1.80;;;9.70;99.90;;;;;;5051821;28;20388;-71
2023/05/15 06:21:50;;;;;;;5.97;2.00;;;9.70;99.90;;;;;;5051206;28;20101;-74
2023/05/15 06:24:16;;;;;;;9.13;2.85;;;9.80;99.90;;;;;;5051837;28;20031;-72
2023/05/15 06:26:42;;;;;;;3.65;1.75;;;9.90;99.90;;;;;;5051748;28;20037;-71
2023/05/15 06:29:07;;;;;;;17.00;2.10;;;10.00;99.90;;;;;;5032704;28;20079;-71
2023/05/15 06:31:33;;;;;;;4.95;2.20;;;10.10;99.90;;;;;;5051908;28;20025;-72
2023/05/15 06:33:59;;;;;;;6.03;1.92;;;10.30;99.90;;;;;;5051182;28;20091;-71
2023/05/15 06:36:24;;;;;;;7.13;2.33;;;10.20;99.90;;;;;;5051569;28;20131;-72
2023/05/15 06:38:50;;;;;;;8.60;2.13;;;10.20;99.90;;;;;;5051472;28;20033;-75
2023/05/15 06:41:16;;;;;;;8.10;1.92;;;10.20;99.90;;;;;;5051617;28;20036;-72
2023/05/15 06:43:41;;;;;;;7.65;2.10;;;10.20;99.90;;;;;;5051508;28;20028;-72
2023/05/15 06:46:07;;;;;;;6.35;2.20;;;10.30;99.90;;;;;;5050872;28;20084;-72
2023/05/15 06:48:33;;;;;;;10.15;1.83;;;10.40;99.90;;;;;;5033225;28;20033;-72
2023/05/15 06:50:59;;;;;;;8.88;2.38;;;10.50;99.90;;;;;;5050878;28;20053;-72
2023/05/15 06:53:24;;;;;;;9.27;2.10;;;10.60;99.90;;;;;;5051233;28;20459;-72
2023/05/15 06:55:50;;;;;;;6.88;2.63;;;10.70;99.90;;;;;;5051216;28;20029;-72
2023/05/15 06:58:16;;;;;;;7.90;2.08;;;10.80;99.90;;;;;;5051258;28;20047;-72
2023/05/15 07:00:43;;;;;;;7.63;1.85;;;10.90;99.90;;;;;;5033277;28;20063;-72
2023/05/15 07:03:08;;;;;;;8.70;1.75;;;11.10;99.90;;;;;;5032672;28;20446;-72
2023/05/15 07:05:34;;;;;;;6.30;2.13;;;11.30;99.90;;;;;;5051120;28;20069;-72
2023/05/15 07:08:00;;;;;;;11.70;2.40;;;11.50;99.90;;;;;;5051050;28;20035;-72
2023/05/15 07:10:25;;;;;;;9.10;1.98;;;11.50;99.90;;;;;;5051019;28;20036;-72
2023/05/15 07:12:51;;;;;;;6.07;1.90;;;11.60;99.90;;;;;;5051074;28;20051;-72
2023/05/15 07:15:17;;;;;;;9.63;2.05;;;11.60;99.90;;;;;;5050589;28;20029;-72
2023/05/15 07:17:43;;;;;;;7.00;2.25;;;11.60;99.90;;;;;;5050950;28;20390;-72
2023/05/15 07:20:09;;;;;;;9.65;1.85;;;11.70;99.90;;;;;;5032386;28;20305;-72
2023/05/15 07:22:34;;;;;;;8.60;2.13;;;11.70;99.90;;;;;;5050970;28;20028;-72
2023/05/15 07:25:00;;;;;;;8.85;2.15;;;11.80;99.90;;;;;;5050332;28;20078;-73
2023/05/15 07:27:26;;;;;;;5.95;1.88;;;11.90;99.90;;;;;;5050406;28;20118;-72
2023/05/15 07:29:52;;;;;;;9.82;2.00;;;12.00;99.90;;;;;;5050401;28;20044;-72
2023/05/15 07:32:18;;;;;;;7.68;1.90;;;12.10;99.90;;;;;;5049942;28;20431;-72
2023/05/15 07:34:44;;;;;;;6.22;1.80;;;12.10;99.90;;;;;;5050621;28;20094;-72
2023/05/15 07:37:10;;;;;;;5.05;1.70;;;12.20;99.90;;;;;;5050166;28;20120;-73
2023/05/15 07:39:35;;;;;;;9.98;2.28;;;12.20;99.90;;;;;;5050399;28;20499;-72
2023/05/15 07:42:01;;;;;;;6.32;1.70;;;12.20;99.90;;;;;;5049955;28;20036;-72
2023/05/15 07:44:27;;;;;;;6.88;1.92;;;12.30;99.90;;;;;;5050359;28;20036;-72
2023/05/15 07:46:55;;;;;;;9.32;2.28;;;12.50;99.90;;;;;;5016037;28;20140;-73
2023/05/15 07:49:20;;;;;;;4.35;1.85;;;12.50;99.90;;;;;;5050739;28;20035;-72
2023/05/15 07:51:47;;;;;;;5.47;1.70;;;12.60;99.90;;;;;;5050414;28;20155;-72
2023/05/15 07:54:12;;;;;;;5.82;1.63;;;12.60;99.90;;;;;;5052799;28;20021;-72
2023/05/15 07:56:38;;;;;;;7.25;1.70;;;12.60;99.90;;;;;;5057053;28;20450;-72
2023/05/15 07:59:04;;;;;;;7.43;1.50;;;12.70;99.90;;;;;;5056503;28;20025;-73
2023/05/15 08:01:29;;;;;;;5.88;1.60;;;12.80;99.90;;;;;;5038702;28;20029;-72
2023/05/15 08:03:57;;;;;;;3.28;1.60;;;12.80;99.90;;;;;;5056579;28;20411;-75
2023/05/15 08:06:22;;;;;;;8.18;1.27;;;12.90;99.90;;;;;;5056935;28;20025;-72
2023/05/15 08:08:48;;;;;;;7.85;1.60;;;12.90;99.90;;;;;;5056939;28;20118;-73
2023/05/15 08:11:14;;;;;;;4.60;1.60;;;12.90;99.90;;;;;;5038356;28;20029;-72
2023/05/15 08:13:39;;;;;;;6.70;1.10;;;12.80;99.90;;;;;;5057434;28;20328;-72
2023/05/15 08:16:05;;;;;;;4.97;1.48;;;12.90;99.90;;;;;;5056649;28;20028;-72
2023/05/15 08:18:31;;;;;;;4.68;1.45;;;13.00;99.90;;;;;;5056955;28;20103;-72
2023/05/15 08:20:57;;;;;;;4.03;1.30;;;13.10;99.90;;;;;;5056537;28;20453;-75
2023/05/15 08:23:22;;;;;;;6.32;1.65;;;13.20;99.90;;;;;;5056511;28;20554;-73
2023/05/15 08:25:48;;;;;;;3.55;1.20;;;13.20;99.90;;;;;;5056749;28;20386;-72
2023/05/15 08:28:14;;;;;;;3.83;1.73;;;13.30;99.90;;;;;;5056473;28;20112;-72
2023/05/15 08:30:40;;;;;;;6.43;1.45;;;13.40;99.90;;;;;;5056528;28;20045;-72
2023/05/15 08:33:05;;;;;;;3.78;1.38;;;13.50;99.90;;;;;;5056065;28;20112;-72
2023/05/15 08:35:31;;;;;;;6.97;1.70;;;13.60;99.90;;;;;;5056528;28;20060;-72
2023/05/15 08:37:58;;;;;;;4.05;0.98;;;13.40;99.90;;;;;;5056613;28;20025;-74
2023/05/15 08:40:23;;;;;;;5.97;1.33;;;13.20;99.90;;;;;;5056454;28;20028;-72
2023/05/15 08:42:54;;;;;;;3.25;1.25;;;13.20;99.90;;;;;;5056478;28;20296;-72
2023/05/15 08:45:20;;;;;;;6.78;1.50;;;13.30;99.90;;;;;;5056154;28;20021;-72
2023/05/15 08:47:46;;;;;;;8.45;1.67;;;13.50;99.90;;;;;;5056552;28;20033;-73
2023/05/15 08:50:14;;;;;;;5.72;1.50;;;13.60;99.90;;;;;;5055807;28;20350;-72
2023/05/15 08:52:41;;;;;;;6.05;1.20;;;13.60;99.90;;;;;;5056615;28;20100;-72
2023/05/15 08:55:09;;;;;;;6.85;1.65;;;13.60;99.90;;;;;;5055787;28;20036;-72
2023/05/15 08:57:35;;;;;;;4.40;1.55;;;13.70;99.90;;;;;;5056193;28;20171;-72
2023/05/15 09:00:08;;;;;;;4.38;1.20;;;13.80;99.90;;;;;;5055892;28;20029;-74
2023/05/15 09:02:37;;;;;;;3.63;1.02;;;13.60;99.90;;;;;;5056355;28;20021;-73
2023/05/15 09:05:08;;;;;;;5.18;1.08;;;13.60;99.90;;;;;;5055087;28;20029;-73
2023/05/15 09:07:35;;;;;;;4.22;1.05;;;13.60;99.90;;;;;;5053584;28;20029;-72
2023/05/15 09:10:02;;;;;;;4.95;1.52;;;13.60;99.90;;;;;;5053056;28;20028;-75
2023/05/15 09:12:35;;;;;;;2.38;1.20;;;13.50;99.90;;;;;;5053201;28;20029;-72
2023/05/15 09:15:28;;;;;;;4.15;1.10;;;13.60;99.90;;;;;;5052878;28;20165;-75
2023/05/15 09:17:54;;;;;;;;;;;13.60;99.90;;;;;;5049739;28;20049;-72
2023/05/15 09:20:38;;;;;;;4.18;1.05;;;13.40;99.90;;;;;;5052796;28;20006;-72
2023/05/15 09:23:20;;;;;;;2.80;0.90;;;13.20;99.90;;;;;;5034632;28;20021;-73
2023/05/15 09:25:51;;;;;;;4.38;1.02;;;13.10;99.90;;;;;;5053066;28;20040;-72
2023/05/15 09:28:32;;;;;;;5.70;1.20;;;13.10;99.90;;;;;;5052705;28;20037;-72
2023/05/15 09:30:58;;;;;;;3.67;1.00;;;13.50;99.90;;;;;;5052602;28;20080;-72
2023/05/15 09:33:32;;;;;;;5.78;1.30;;;13.70;99.90;;;;;;5052940;28;20083;-72
2023/05/15 09:35:58;;;;;;;2.60;0.70;;;13.80;99.90;;;;;;5052708;28;20389;-72
2023/05/15 09:38:24;;;;;;;4.30;1.20;;;13.70;99.90;;;;;;5052370;28;20107;-72
2023/05/15 09:40:59;;;;;;;7.63;1.38;;;13.80;99.90;;;;;;5052602;28;20115;-72
2023/05/15 09:43:28;;;;;;;3.85;1.02;;;13.70;99.90;;;;;;5052170;28;20100;-72
2023/05/15 09:45:54;;;;;;;3.80;1.08;;;13.80;99.90;;;;;;5052753;28;20135;-73
2023/05/15 09:48:20;;;;;;;4.93;1.48;;;13.80;99.90;;;;;;5052128;28;20032;-73
2023/05/15 09:50:47;;;;;;;4.47;1.25;;;13.90;99.90;;;;;;5052883;28;20025;-73
2023/05/15 09:53:13;;;;;;;2.13;0.70;;;14.10;99.90;;;;;;5052438;28;20036;-73
2023/05/15 09:55:41;;;;;;;4.43;1.17;;;14.30;99.90;;;;;;5052594;28;20033;-73
2023/05/15 09:58:17;;;;;;;3.17;0.90;;;14.20;99.90;;;;;;5052276;28;20476;-72
2023/05/15 10:00:43;;;;;;;2.72;0.60;;;14.20;99.90;;;;;;5052395;28;20470;-72
2023/05/15 10:03:10;;;;;;;4.53;0.80;;;14.30;99.90;;;;;;5051990;28;20075;-72
2023/05/15 10:05:37;;;;;;;2.38;0.70;;;14.40;99.90;;;;;;5052471;28;20029;-72
2023/05/15 10:08:04;;;;;;;3.53;0.80;;;14.50;99.90;;;;;;5052219;28;20398;-74
2023/05/15 10:10:30;;;;;;;2.88;0.40;;;14.60;99.90;;;;;;5052145;28;20028;-71
2023/05/15 10:13:02;;;;;;;3.03;0.73;;;14.90;99.90;;;;;;5051976;28;20347;-72
2023/05/15 10:15:28;;;;;;;3.35;0.80;;;14.90;99.90;;;;;;5052070;28;20029;-72
2023/05/15 10:17:54;;;;;;;2.80;0.80;;;14.70;99.90;;;;;;5051962;28;20095;-72
2023/05/15 10:20:24;;;;;;;3.90;0.80;;;14.60;99.90;;;;;;5051655;28;20021;-72
2023/05/15 10:22:55;;;;;;;3.35;0.60;;;14.60;99.90;;;;;;5052184;28;20047;-71
2023/05/15 10:25:49;;;;;;;2.40;0.60;;;14.40;99.90;;;;;;5051722;28;20439;-72
2023/05/15 10:28:16;;;;;;;1.02;0.80;;;14.30;99.90;;;;;;5051434;28;20044;-73
2023/05/15 10:30:43;;;;;;;2.03;0.50;;;14.70;99.90;;;;;;5051931;28;20105;-72
2023/05/15 10:33:12;;;;;;;2.08;0.45;;;14.70;99.90;;;;;;5051402;28;20336;-73
2023/05/15 10:35:39;;;;;;;3.90;0.90;;;14.60;99.90;;;;;;5034314;28;20050;-72
2023/05/15 10:38:05;;;;;;;1.17;0.45;;;14.50;99.90;;;;;;5051816;28;20029;-75
2023/05/15 10:40:36;;;;;;;2.47;0.90;;;14.40;99.90;;;;;;5051738;28;20021;-73
2023/05/15 10:43:03;;;;;;;2.25;0.75;;;14.40;99.90;;;;;;5052288;28;20108;-73
2023/05/15 10:45:30;;;;;;;3.08;0.82;;;14.30;99.90;;;;;;5051395;28;20081;-73
2023/05/15 10:47:57;;;;;;;3.85;0.80;;;14.20;99.90;;;;;;5051588;28;20033;-73
2023/05/15 10:50:23;;;;;;;2.88;0.88;;;14.30;99.90;;;;;;5051418;28;20029;-73
2023/05/15 10:52:52;;;;;;;1.10;0.70;;;14.40;99.90;;;;;;5051692;28;20043;-73
2023/05/15 10:55:18;;;;;;;2.15;0.82;;;14.60;99.90;;;;;;5051221;28;20130;-73
2023/05/15 10:57:46;;;;;;;4.35;0.90;;;14.70;99.90;;;;;;5051408;28;20057;-73
2023/05/15 11:00:21;;;;;;;5.10;0.80;;;14.50;99.90;;;;;;5050762;28;20465;-73
2023/05/15 11:02:47;;;;;;;1.17;0.52;;;14.40;99.90;;;;;;5051161;28;20036;-72
2023/05/15 11:05:13;;;;;;;3.50;0.75;;;14.40;99.90;;;;;;5050555;28;20374;-73
2023/05/15 11:07:39;;;;;;;0.55;0.30;;;14.40;99.90;;;;;;5050845;28;20083;-73
2023/05/15 11:10:26;;;;;;;2.35;0.75;;;14.40;99.90;;;;;;5051562;28;20141;-73
2023/05/15 11:13:00;;;;;;;4.05;0.90;;;14.50;99.90;;;;;;5051113;28;20025;-73
2023/05/15 11:15:26;;;;;;;0.90;0.63;;;14.60;99.90;;;;;;5050371;28;20028;-73
2023/05/15 11:18:05;;;;;;;1.92;0.57;;;14.70;99.90;;;;;;5033001;28;20032;-73
2023/05/15 11:20:33;;;;;;;2.78;1.02;;;14.60;99.90;;;;;;5050456;28;20029;-72
2023/05/15 11:22:59;;;;;;;2.47;1.00;;;14.60;99.90;;;;;;5050819;28;20021;-72
2023/05/15 11:25:31;;;;;;;1.83;0.55;;;14.70;99.90;;;;;;5032372;28;20099;-74
2023/05/15 11:27:58;;;;;;;3.80;1.00;;;14.80;99.90;;;;;;5051249;28;20178;-74
2023/05/15 11:30:35;;;;;;;1.95;0.80;;;15.00;99.90;;;;;;5049696;28;20060;-73
2023/05/15 11:33:03;;;;;;;2.70;0.98;;;15.10;99.90;;;;;;5051141;28;20415;-73
2023/05/15 11:35:29;;;;;;;3.17;0.50;;;15.10;99.90;;;;;;5050710;28;20036;-72
2023/05/15 11:38:10;;;;;;;3.70;0.85;;;15.00;99.90;;;;;;5050862;28;20484;-73
2023/05/15 11:40:51;;;;;;;1.58;0.70;;;14.90;99.90;;;;;;5050827;28;20021;-73
2023/05/15 11:43:26;;;;;;;1.58;0.70;;;14.80;99.90;;;;;;5050347;28;20017;-72
2023/05/15 11:46:08;;;;;;;1.45;0.35;;;14.80;99.90;;;;;;5050959;28;20063;-73
2023/05/15 11:48:36;;;;;;;2.42;0.70;;;15.30;99.90;;;;;;5032552;28;20124;-74
2023/05/15 11:51:04;;;;;;;3.30;0.70;;;15.70;99.90;;;;;;5050796;28;20082;-72
2023/05/15 11:53:31;;;;;;;2.95;0.88;;;15.90;99.90;;;;;;5050180;28;20108;-73
2023/05/15 11:55:57;;;;;;;1.83;0.55;;;16.20;99.90;;;;;;5032932;28;20033;-74
2023/05/15 11:58:24;;;;;;;3.88;0.70;;;16.30;99.90;;;;;;5050410;28;20025;-73
2023/05/15 12:00:52;;;;;;;2.22;0.63;;;16.20;99.90;;;;;;5050636;28;20037;-73
2023/05/15 12:03:24;;;;;;;1.58;0.63;;;15.90;99.90;;;;;;5050156;28;20033;-74
2023/05/15 12:05:52;;;;;;;1.38;0.73;;;16.00;99.90;;;;;;5033001;28;20363;-73
2023/05/15 12:08:19;;;;;;;2.17;0.65;;;16.00;99.90;;;;;;5050890;28;20044;-72
2023/05/15 12:10:45;;;;;;;3.50;0.77;;;16.10;99.90;;;;;;5050971;28;20029;-73
2023/05/15 12:13:15;;;;;;;2.47;0.80;;;16.00;99.90;;;;;;5050180;28;20486;-75
2023/05/15 12:15:43;;;;;;;2.67;0.60;;;16.00;99.90;;;;;;5050617;28;20029;-73
2023/05/15 12:18:09;;;;;;;2.08;0.82;;;15.80;99.90;;;;;;5049978;28;20313;-74
2023/05/15 12:20:37;;;;;;;2.58;0.80;;;15.50;99.90;;;;;;5050006;28;20145;-73
2023/05/15 12:23:03;;;;;;;1.92;0.70;;;15.40;99.90;;;;;;5050164;28;20111;-73
2023/05/15 12:25:31;;;;;;;3.30;0.60;;;15.30;99.90;;;;;;5049719;28;20060;-73
2023/05/15 12:27:57;;;;;;;1.95;0.60;;;15.30;99.90;;;;;;5050433;28;20029;-73
2023/05/15 12:30:23;;;;;;;1.13;0.25;;;15.40;99.90;;;;;;5049749;28;20053;-72
2023/05/15 12:32:49;;;;;;;2.85;0.73;;;15.50;99.90;;;;;;5050260;28;20028;-73
2023/05/15 12:35:15;;;;;;;2.05;0.80;;;15.60;99.90;;;;;;5049903;28;20033;-76
2023/05/15 12:37:41;;;;;;;1.15;0.32;;;15.70;99.90;;;;;;5050421;28;20025;-73
2023/05/15 12:40:09;;;;;;;1.30;0.60;;;15.90;99.90;;;;;;5050793;28;20055;-73
2023/05/15 12:42:42;;;;;;;1.77;0.60;;;16.00;99.90;;;;;;5053231;28;20042;-73
2023/05/15 12:45:19;;;;;;;2.67;0.52;;;16.20;99.90;;;;;;5053954;28;20102;-72
2023/05/15 12:47:46;;;;;;;1.35;0.57;;;16.30;99.90;;;;;;5053786;28;20509;-73
2023/05/15 12:50:17;;;;;;;1.83;0.70;;;16.10;99.90;;;;;;5036201;28;20104;-72
2023/05/15 12:52:49;;;;;;;1.60;0.60;;;15.90;99.90;;;;;;5053601;28;20029;-71
2023/05/15 12:55:16;;;;;;;3.97;1.00;;;15.80;99.90;;;;;;5053429;28;20029;-75
2023/05/15 12:57:43;;;;;;;3.45;0.80;;;15.60;99.90;;;;;;5053735;28;20036;-72